This is the latest recevied weather packets stored in our database for station/object KG5APU. If no packets are shown the sender has not sent any weather packets the latest 10 day(s).
| Time | Temp. | Humidity | Pressure | Rain* | Wind** | Luminosity | Snow |
|---|---|---|---|---|---|---|---|
| 1777733186 | 18.33° C | 54% | 1022.8 hPa | 0 mm | - | 459 W/m² | - |
| 1777732585 | 17.78° C | 59% | 1022.6 hPa | 0 mm | - | 426 W/m² | - |
| 1777731980 | 17.22° C | 59% | 1022.5 hPa | 0 mm | - | 394 W/m² | - |
| 1777731380 | 16.67° C | 64% | 1022.7 hPa | 0 mm | - | 355 W/m² | - |
| 1777730776 | 16.11° C | 66% | 1022.6 hPa | 0 mm | - | 322 W/m² | - |
| 1777730174 | 16.11° C | 69% | 1022.6 hPa | 0 mm | - | 286 W/m² | - |
| 1777729573 | 15° C | 71% | 1022.5 hPa | 0 mm | - | 253 W/m² | - |
| 1777728972 | 14.44° C | 74% | 1022.4 hPa | 0 mm | - | 215 W/m² | - |
| 1777728372 | 13.89° C | 75% | 1022.4 hPa | 0 mm | - | 192 W/m² | - |
| 1777727772 | 13.89° C | 76% | 1022.2 hPa | 0 mm | - | 163 W/m² | - |
| 1777727166 | 13.33° C | 79% | 1022 hPa | 0 mm | - | 135 W/m² | - |
| 1777726566 | 12.78° C | 79% | 1021.9 hPa | 0 mm | - | 111 W/m² | - |
| 1777725966 | 12.22° C | 83% | 1021.9 hPa | 0 mm | - | 88 W/m² | - |
| 1777725361 | 11.67° C | 88% | 1021.7 hPa | 0 mm | - | 56 W/m² | - |
| 1777724760 | 10.56° C | 91% | 1021.5 hPa | 0 mm | - | 40 W/m² | - |
| 1777724161 | 10° C | 92% | 1021.2 hPa | 0 mm | - | 25 W/m² | - |
| 1777723560 | 10° C | 91% | 1021 hPa | 0 mm | - | 19 W/m² | - |
| 1777722956 | 10.56° C | 91% | 1020.9 hPa | 0 mm | - | 12 W/m² | - |
| 1777722353 | 11.11° C | 91% | 1020.7 hPa | 0 mm | - | 7 W/m² | - |
| 1777721753 | 11.11° C | 91% | 1020.3 hPa | 0 mm | - | 2 W/m² | - |
| 1777721149 | 11.67° C | 89% | 1020.5 hPa | 0 mm | - | 0 W/m² | - |
| 1777720549 | 11.67° C | 90% | 1020.4 hPa | 0 mm | - | 0 W/m² | - |
| 1777719944 | 11.67° C | 90% | 1020.5 hPa | 0 mm | - | 0 W/m² | - |
| 1777719345 | 11.67° C | 89% | 1020.4 hPa | 0 mm | - | 0 W/m² | - |
| 1777718745 | 11.67° C | 89% | 1019.9 hPa | 0 mm | - | 0 W/m² | - |
* Rain latest hour (hover to see other rain measurements)
** Current wind speed in m/s (hover to see current wind gust speed)